Time;durP1;ratioP1;P1;durP2;ratioP2;P2;SDS_P1;SDS_P2;PMS_P1;PMS_P2;Temp;Humidity;BMP_temperature;BMP_pressure;BME280_temperature;BME280_humidity;BME280_pressure;Samples;Min_cycle;Max_cycle;Signal;HPM_P1;HPM_P2
2021/12/01 00:00:53;;;;;;;2.30;0.80;;;1.90;99.90;;;;;;2072450;28;20584;-61
2021/12/01 00:01:54;;;;;;;0.68;0.65;;;2.00;99.90;;;;;;2072806;28;20202;-61
2021/12/01 00:02:56;;;;;;;0.73;0.70;;;2.00;99.90;;;;;;2072870;28;20230;-60
2021/12/01 00:03:56;;;;;;;1.02;0.80;;;2.00;99.90;;;;;;2072570;28;20633;-61
2021/12/01 00:04:57;;;;;;;0.70;0.70;;;2.00;99.90;;;;;;2072684;28;20203;-62
2021/12/01 00:05:57;;;;;;;0.90;0.90;;;2.00;99.90;;;;;;2072586;28;20197;-60
2021/12/01 00:06:58;;;;;;;1.00;0.90;;;2.00;99.90;;;;;;2072759;28;20605;-62
2021/12/01 00:07:59;;;;;;;1.43;0.90;;;2.00;99.90;;;;;;2071868;28;20200;-63
2021/12/01 00:09:00;;;;;;;2.10;0.90;;;2.00;99.90;;;;;;2063813;28;20262;-62
2021/12/01 00:10:07;;;;;;;1.03;0.90;;;1.90;99.90;;;;;;2072348;28;20421;-63
2021/12/01 00:11:08;;;;;;;1.17;0.95;;;1.90;99.90;;;;;;2073234;28;20192;-60
2021/12/01 00:12:09;;;;;;;1.07;0.80;;;1.90;99.90;;;;;;2072756;28;20203;-64
2021/12/01 00:13:13;;;;;;;0.80;0.80;;;2.00;99.90;;;;;;2076262;28;20189;-60
2021/12/01 00:14:14;;;;;;;0.90;0.82;;;2.00;99.90;;;;;;2079810;28;20796;-61
2021/12/01 00:15:15;;;;;;;1.03;0.87;;;2.00;99.90;;;;;;2072724;28;20216;-61
2021/12/01 00:16:16;;;;;;;1.45;0.98;;;2.00;99.90;;;;;;2072474;28;20222;-61
2021/12/01 00:17:16;;;;;;;1.93;0.80;;;2.10;99.90;;;;;;2071921;28;20186;-62
2021/12/01 00:18:18;;;;;;;0.80;0.80;;;2.10;99.90;;;;;;2072504;28;20187;-62
2021/12/01 00:19:18;;;;;;;0.70;0.68;;;2.00;99.90;;;;;;2072569;28;20192;-62
2021/12/01 00:20:21;;;;;;;3.20;0.80;;;2.00;99.90;;;;;;2072357;28;20207;-61
2021/12/01 00:21:21;;;;;;;0.80;0.80;;;2.00;99.90;;;;;;2073325;28;20189;-62
2021/12/01 00:22:22;;;;;;;0.60;0.60;;;2.10;99.90;;;;;;2073183;28;20208;-62
2021/12/01 00:23:24;;;;;;;0.57;0.53;;;2.00;99.90;;;;;;2072860;28;20207;-62
2021/12/01 00:24:24;;;;;;;0.60;0.60;;;2.00;99.90;;;;;;2073271;28;20187;-62
2021/12/01 00:25:26;;;;;;;0.80;0.63;;;2.10;99.90;;;;;;2073127;28;20349;-62
2021/12/01 00:26:27;;;;;;;0.90;0.68;;;2.10;99.90;;;;;;2073292;28;20180;-62
2021/12/01 00:27:28;;;;;;;0.60;0.60;;;2.10;99.90;;;;;;2073176;28;20211;-62
2021/12/01 00:28:29;;;;;;;0.60;0.60;;;2.10;99.90;;;;;;2073210;28;20266;-63
2021/12/01 00:29:29;;;;;;;0.60;0.60;;;2.00;99.90;;;;;;2072987;28;20175;-60
2021/12/01 00:30:30;;;;;;;0.50;0.50;;;2.00;99.90;;;;;;2073143;28;20198;-62
2021/12/01 00:31:32;;;;;;;0.77;0.50;;;2.10;99.90;;;;;;2073273;28;20183;-70
2021/12/01 00:32:35;;;;;;;0.43;0.43;;;2.10;99.90;;;;;;2072446;28;20190;-71
2021/12/01 00:33:36;;;;;;;1.73;0.50;;;2.10;99.90;;;;;;2072532;28;20190;-62
2021/12/01 00:34:37;;;;;;;0.45;0.40;;;2.10;99.90;;;;;;2073237;28;20214;-62
2021/12/01 00:35:38;;;;;;;0.30;0.30;;;2.10;99.90;;;;;;2073022;28;20191;-62
2021/12/01 00:36:38;;;;;;;0.33;0.30;;;2.10;99.90;;;;;;2073235;28;20190;-62
2021/12/01 00:37:41;;;;;;;0.40;0.40;;;2.10;99.90;;;;;;2068522;28;20194;-63
2021/12/01 00:38:43;;;;;;;0.40;0.40;;;2.10;99.90;;;;;;2072661;28;20184;-63
2021/12/01 00:39:45;;;;;;;0.40;0.40;;;2.10;99.90;;;;;;2072246;28;20733;-61
2021/12/01 00:40:46;;;;;;;0.20;0.20;;;2.10;99.90;;;;;;2073087;28;20215;-64
2021/12/01 00:41:48;;;;;;;2.58;0.40;;;2.10;99.90;;;;;;2073959;28;20239;-63
2021/12/01 00:42:49;;;;;;;0.30;0.30;;;2.10;99.90;;;;;;2074899;28;20204;-63
2021/12/01 00:43:50;;;;;;;0.30;0.20;;;2.20;99.90;;;;;;2074804;28;20184;-62
2021/12/01 00:44:56;;;;;;;0.40;0.40;;;2.10;99.90;;;;;;2074919;28;20175;-62
2021/12/01 00:45:58;;;;;;;0.30;0.30;;;2.10;99.90;;;;;;2074756;28;20179;-63
2021/12/01 00:48:02;;;;;;;0.40;0.30;;;2.10;99.90;;;;;;2074850;28;20191;-63
2021/12/01 00:49:03;;;;;;;0.33;0.20;;;2.10;99.90;;;;;;2074885;28;20667;-61
2021/12/01 00:50:04;;;;;;;0.20;0.20;;;2.10;99.90;;;;;;2073684;28;20438;-61
2021/12/01 00:51:05;;;;;;;0.30;0.30;;;2.10;99.90;;;;;;2066106;28;20663;-61
2021/12/01 00:52:07;;;;;;;0.40;0.40;;;2.10;99.90;;;;;;2074121;28;20189;-61
2021/12/01 00:53:08;;;;;;;0.47;0.38;;;2.10;99.90;;;;;;2074793;28;20189;-61
2021/12/01 00:54:08;;;;;;;0.40;0.40;;;2.10;99.90;;;;;;2074704;28;20206;-59
2021/12/01 00:55:10;;;;;;;0.67;0.40;;;2.10;99.90;;;;;;2074906;28;20180;-60
2021/12/01 00:56:11;;;;;;;0.40;0.40;;;2.10;99.90;;;;;;2074878;28;20221;-61
2021/12/01 00:57:11;;;;;;;0.30;0.30;;;2.10;99.90;;;;;;2074974;28;20188;-62
2021/12/01 00:58:14;;;;;;;0.20;0.20;;;2.20;99.90;;;;;;2074796;28;20645;-62
2021/12/01 00:59:15;;;;;;;0.20;0.20;;;2.20;99.90;;;;;;2075008;28;20200;-61
2021/12/01 01:00:17;;;;;;;0.30;0.30;;;2.20;99.90;;;;;;2074455;28;20703;-61
2021/12/01 01:01:18;;;;;;;0.28;0.28;;;2.30;99.90;;;;;;2074944;28;20225;-61
2021/12/01 01:02:19;;;;;;;0.30;0.30;;;2.20;99.90;;;;;;2074630;28;20776;-62
2021/12/01 01:03:20;;;;;;;0.40;0.40;;;2.20;99.90;;;;;;2074747;28;20175;-62
2021/12/01 01:04:21;;;;;;;0.27;0.27;;;2.20;99.90;;;;;;2074699;28;20749;-62
2021/12/01 01:05:22;;;;;;;0.30;0.30;;;2.20;99.90;;;;;;2074846;28;20560;-62
2021/12/01 01:06:22;;;;;;;0.30;0.30;;;2.20;99.90;;;;;;2074493;28;20244;-62
2021/12/01 01:07:23;;;;;;;0.37;0.37;;;2.20;99.90;;;;;;2074524;28;20184;-62
2021/12/01 01:08:24;;;;;;;0.40;0.40;;;2.20;99.90;;;;;;2074720;28;20184;-62
2021/12/01 01:09:30;;;;;;;1.60;0.40;;;2.20;99.90;;;;;;2074578;28;20216;-61
2021/12/01 01:10:56;;;;;;;0.40;0.40;;;2.20;99.90;;;;;;2074566;28;20205;-61
2021/12/01 01:17:24;;;;;;;1.00;0.70;;;2.30;99.90;;;;;;2074707;28;20179;-62
2021/12/01 01:18:27;;;;;;;0.85;0.70;;;2.20;99.90;;;;;;2074662;28;20184;-62
2021/12/01 01:19:28;;;;;;;1.02;0.80;;;2.30;99.90;;;;;;2074617;28;20184;-61
2021/12/01 01:20:29;;;;;;;0.80;0.70;;;2.20;99.90;;;;;;2074324;28;20204;-62
2021/12/01 01:21:35;;;;;;;0.70;0.68;;;2.30;99.90;;;;;;2074682;28;20249;-62
2021/12/01 01:22:36;;;;;;;0.88;0.80;;;2.30;99.90;;;;;;2074776;28;20214;-62
2021/12/01 01:23:38;;;;;;;0.75;0.73;;;2.20;99.90;;;;;;2074503;28;20238;-62
2021/12/01 01:24:39;;;;;;;1.80;0.98;;;2.20;99.90;;;;;;2074553;28;20189;-62
2021/12/01 01:25:40;;;;;;;0.80;0.80;;;2.20;99.90;;;;;;2074524;28;20281;-61
2021/12/01 01:26:41;;;;;;;2.20;1.10;;;2.20;99.90;;;;;;2074542;28;20183;-62
2021/12/01 01:27:41;;;;;;;1.08;0.80;;;2.20;99.90;;;;;;2074621;28;20186;-62
2021/12/01 01:28:43;;;;;;;0.97;0.80;;;2.30;99.90;;;;;;2074513;28;20553;-62
2021/12/01 01:29:44;;;;;;;0.68;0.68;;;2.30;99.90;;;;;;2074301;28;20557;-62
2021/12/01 01:30:45;;;;;;;1.67;0.90;;;2.30;99.90;;;;;;2074506;28;20227;-62
2021/12/01 01:31:45;;;;;;;1.33;1.00;;;2.30;99.90;;;;;;2074450;28;20642;-62
2021/12/01 01:32:46;;;;;;;1.27;1.00;;;2.30;99.90;;;;;;2074598;28;20196;-62
2021/12/01 01:33:48;;;;;;;1.33;1.10;;;2.30;99.90;;;;;;2074399;28;20610;-62
2021/12/01 01:34:49;;;;;;;3.30;1.05;;;2.30;99.90;;;;;;2073851;28;20210;-62
2021/12/01 01:35:52;;;;;;;0.93;0.90;;;2.30;99.90;;;;;;2073861;28;20655;-60
2021/12/01 01:36:53;;;;;;;1.60;1.08;;;2.20;99.90;;;;;;2074579;28;20184;-62
2021/12/01 01:37:54;;;;;;;1.08;0.95;;;2.20;99.90;;;;;;2074483;28;20192;-61
2021/12/01 01:38:56;;;;;;;2.10;0.80;;;2.20;99.90;;;;;;2074821;28;20194;-61
2021/12/01 01:39:57;;;;;;;1.52;1.00;;;2.20;99.90;;;;;;2074024;28;20238;-62
2021/12/01 01:41:03;;;;;;;1.20;1.00;;;2.30;99.90;;;;;;2074552;28;20191;-61
2021/12/01 01:42:04;;;;;;;1.25;0.95;;;2.30;99.90;;;;;;2074373;28;20172;-61
2021/12/01 01:43:06;;;;;;;1.13;1.03;;;2.20;99.90;;;;;;2074496;28;20548;-62
2021/12/01 01:44:07;;;;;;;1.10;1.00;;;2.30;99.90;;;;;;2074352;28;20813;-62
2021/12/01 01:45:09;;;;;;;1.00;0.80;;;2.20;99.90;;;;;;2074388;28;20192;-61
2021/12/01 01:46:11;;;;;;;1.58;0.98;;;2.20;99.90;;;;;;2074487;28;20182;-62
2021/12/01 01:47:12;;;;;;;1.50;1.00;;;2.30;99.90;;;;;;2074537;28;20195;-62
2021/12/01 01:48:14;;;;;;;1.07;0.90;;;2.30;99.90;;;;;;2074272;28;20189;-61
2021/12/01 01:49:19;;;;;;;1.02;0.93;;;2.30;99.90;;;;;;2074426;28;20195;-62
2021/12/01 01:50:34;;;;;;;1.48;1.10;;;2.30;99.90;;;;;;2073976;28;20208;-62
2021/12/01 01:51:36;;;;;;;1.15;1.02;;;2.30;99.90;;;;;;2074387;28;20159;-62
2021/12/01 01:52:37;;;;;;;1.30;1.00;;;2.30;99.90;;;;;;2074370;28;20668;-62
2021/12/01 01:53:38;;;;;;;1.20;1.10;;;2.30;99.90;;;;;;2074422;28;20185;-62
2021/12/01 01:54:38;;;;;;;1.20;1.10;;;2.40;99.90;;;;;;2074412;28;20177;-62
2021/12/01 01:55:43;;;;;;;2.00;1.60;;;2.40;99.90;;;;;;2074211;28;20917;-62
2021/12/01 01:56:44;;;;;;;1.20;1.10;;;2.40;99.90;;;;;;2074360;28;20182;-62
2021/12/01 01:57:45;;;;;;;1.58;1.30;;;2.40;99.90;;;;;;2074292;28;20189;-62
2021/12/01 01:58:46;;;;;;;1.00;0.90;;;2.50;99.90;;;;;;2074391;28;20186;-61
2021/12/01 01:59:47;;;;;;;1.60;1.13;;;2.40;99.90;;;;;;2074121;28;20176;-61
2021/12/01 02:01:06;;;;;;;1.33;1.00;;;2.40;99.90;;;;;;2074213;28;20211;-61
2021/12/01 02:02:07;;;;;;;0.95;0.90;;;2.40;99.90;;;;;;2074252;28;20641;-62
2021/12/01 02:03:12;;;;;;;1.20;1.10;;;2.50;99.90;;;;;;2074325;28;20216;-62
2021/12/01 02:04:18;;;;;;;1.20;1.05;;;2.50;99.90;;;;;;2074285;28;20546;-61
2021/12/01 02:05:19;;;;;;;1.75;1.15;;;2.50;99.90;;;;;;2073693;28;20311;-62
2021/12/01 02:06:23;;;;;;;0.93;0.80;;;2.50;99.90;;;;;;2073503;28;20657;-62
2021/12/01 02:07:24;;;;;;;0.80;0.80;;;2.50;99.90;;;;;;2074249;28;20610;-62
2021/12/01 02:08:31;;;;;;;1.00;0.90;;;2.60;99.90;;;;;;2074236;28;20238;-62
2021/12/01 02:09:32;;;;;;;0.98;0.80;;;2.60;99.90;;;;;;2074006;28;20187;-62
2021/12/01 02:10:33;;;;;;;1.52;1.10;;;2.60;99.90;;;;;;2074239;28;20201;-61
2021/12/01 02:11:34;;;;;;;1.00;0.90;;;2.60;99.90;;;;;;2074445;28;20192;-61
2021/12/01 02:12:39;;;;;;;1.02;0.80;;;2.50;99.90;;;;;;2074280;28;20246;-62
2021/12/01 02:13:41;;;;;;;0.90;0.80;;;2.60;99.90;;;;;;2074160;28;20193;-62
2021/12/01 02:14:42;;;;;;;1.52;0.70;;;2.60;99.90;;;;;;2074120;28;20600;-62
2021/12/01 02:15:44;;;;;;;0.97;0.83;;;2.60;99.90;;;;;;2074092;28;20191;-61
2021/12/01 02:16:45;;;;;;;0.93;0.85;;;2.60;99.90;;;;;;2074129;28;20667;-62
2021/12/01 02:17:46;;;;;;;1.00;0.60;;;2.60;99.90;;;;;;2074067;28;20191;-62
2021/12/01 02:18:47;;;;;;;0.70;0.70;;;2.70;99.90;;;;;;2074094;28;20193;-62
2021/12/01 02:19:52;;;;;;;0.70;0.70;;;2.70;99.90;;;;;;2073202;28;20223;-62
2021/12/01 02:21:14;;;;;;;1.05;0.77;;;2.70;99.90;;;;;;2066088;28;20640;-60
2021/12/01 02:22:15;;;;;;;0.50;0.50;;;2.70;99.90;;;;;;2073535;28;20621;-61
2021/12/01 02:23:16;;;;;;;0.60;0.60;;;2.80;99.90;;;;;;2074032;28;20181;-61
2021/12/01 02:24:19;;;;;;;0.70;0.70;;;2.80;99.90;;;;;;2074045;28;20187;-62
2021/12/01 02:25:24;;;;;;;0.52;0.52;;;2.80;99.90;;;;;;2074186;28;20535;-62
2021/12/01 02:26:27;;;;;;;0.90;0.70;;;2.70;99.90;;;;;;2074261;28;20195;-62
2021/12/01 02:27:28;;;;;;;1.25;0.70;;;2.80;99.90;;;;;;2073932;28;20589;-62
2021/12/01 02:28:30;;;;;;;0.83;0.60;;;2.70;99.90;;;;;;2074098;28;20189;-62
2021/12/01 02:29:30;;;;;;;0.60;0.60;;;2.70;99.90;;;;;;2073382;28;20221;-60
2021/12/01 02:30:31;;;;;;;0.57;0.57;;;2.80;99.90;;;;;;2073217;28;20202;-62
2021/12/01 02:31:38;;;;;;;0.50;0.50;;;2.80;99.90;;;;;;2074023;28;20613;-62
2021/12/01 02:32:39;;;;;;;0.43;0.40;;;2.80;99.90;;;;;;2074116;28;20254;-62
2021/12/01 02:33:40;;;;;;;0.70;0.70;;;2.80;99.90;;;;;;2073943;28;20199;-62
2021/12/01 02:34:44;;;;;;;0.53;0.50;;;2.80;99.90;;;;;;2074175;28;20183;-62
2021/12/01 02:35:44;;;;;;;0.60;0.60;;;2.80;99.90;;;;;;2074103;28;20548;-62
2021/12/01 02:37:03;;;;;;;0.60;0.60;;;2.90;99.90;;;;;;2074190;28;20277;-62
2021/12/01 02:38:05;;;;;;;1.42;0.50;;;2.90;99.90;;;;;;2073966;28;20186;-62
2021/12/01 02:39:11;;;;;;;0.68;0.68;;;2.90;99.90;;;;;;2073989;28;20188;-62
2021/12/01 02:40:12;;;;;;;0.80;0.80;;;3.00;99.90;;;;;;2073572;28;20164;-61
2021/12/01 02:41:14;;;;;;;0.60;0.60;;;3.00;99.90;;;;;;2073940;28;20676;-62
2021/12/01 02:42:19;;;;;;;0.57;0.57;;;3.00;99.90;;;;;;2073686;28;20657;-62
2021/12/01 02:43:24;;;;;;;0.60;0.60;;;3.00;99.90;;;;;;2073865;28;20188;-62
2021/12/01 02:44:28;;;;;;;0.60;0.60;;;3.00;99.90;;;;;;2073322;28;20212;-62
2021/12/01 02:45:29;;;;;;;1.20;0.60;;;3.00;99.90;;;;;;2073391;28;20556;-62
2021/12/01 02:46:30;;;;;;;0.43;0.43;;;3.00;99.90;;;;;;2073846;28;20188;-62
2021/12/01 02:47:30;;;;;;;0.60;0.50;;;3.00;99.90;;;;;;2073890;28;20589;-62
2021/12/01 02:48:35;;;;;;;0.77;0.50;;;3.00;99.90;;;;;;2073929;28;20177;-62
2021/12/01 02:49:36;;;;;;;0.47;0.43;;;3.00;99.90;;;;;;2073836;28;20176;-62
2021/12/01 02:50:37;;;;;;;0.50;0.50;;;3.10;99.90;;;;;;2073612;28;20209;-63
2021/12/01 02:51:39;;;;;;;0.70;0.70;;;3.10;99.90;;;;;;2073944;28;20232;-62
2021/12/01 02:52:40;;;;;;;1.13;0.50;;;3.10;99.90;;;;;;2073913;28;20188;-62
2021/12/01 02:53:41;;;;;;;0.50;0.50;;;3.10;99.90;;;;;;2074096;28;20234;-62
2021/12/01 02:54:42;;;;;;;1.40;0.80;;;3.10;99.90;;;;;;2073985;28;20204;-62
2021/12/01 02:55:53;;;;;;;1.03;1.00;;;3.00;99.90;;;;;;2073954;28;20554;-62
2021/12/01 02:56:55;;;;;;;0.50;0.50;;;3.00;99.90;;;;;;2073854;28;20179;-62
2021/12/01 02:57:59;;;;;;;0.95;0.70;;;3.00;99.90;;;;;;2073974;28;20194;-62
2021/12/01 02:59:03;;;;;;;1.55;0.63;;;3.00;99.90;;;;;;2073970;28;20211;-62
2021/12/01 03:00:05;;;;;;;0.60;0.60;;;3.00;99.90;;;;;;2073475;28;20193;-61
2021/12/01 03:01:12;;;;;;;0.50;0.50;;;3.00;99.90;;;;;;2073163;28;20189;-62
2021/12/01 03:02:15;;;;;;;0.75;0.50;;;3.00;99.90;;;;;;2073222;28;20677;-62
2021/12/01 03:03:17;;;;;;;0.63;0.63;;;3.00;99.90;;;;;;2073182;28;20184;-62
2021/12/01 03:04:19;;;;;;;1.25;0.60;;;3.00;99.90;;;;;;2072681;28;20188;-62
2021/12/01 03:05:20;;;;;;;1.33;0.70;;;3.00;99.90;;;;;;2073112;28;20175;-62
2021/12/01 03:06:26;;;;;;;0.65;0.60;;;3.00;99.90;;;;;;2073200;28;20227;-62
2021/12/01 03:07:27;;;;;;;0.50;0.50;;;3.00;99.90;;;;;;2073818;28;20168;-62
2021/12/01 03:08:29;;;;;;;0.40;0.40;;;3.00;99.90;;;;;;2073104;28;20186;-62
2021/12/01 03:09:30;;;;;;;0.60;0.60;;;3.00;99.90;;;;;;2064839;28;20591;-61
2021/12/01 03:10:31;;;;;;;0.47;0.40;;;3.00;99.90;;;;;;2072599;28;20220;-62
2021/12/01 03:11:31;;;;;;;1.17;0.50;;;3.10;99.90;;;;;;2073747;28;20177;-62
2021/12/01 03:12:36;;;;;;;0.60;0.60;;;3.10;99.90;;;;;;2072697;28;20197;-62
2021/12/01 03:13:38;;;;;;;0.90;0.60;;;3.10;99.90;;;;;;2073150;28;20248;-62
2021/12/01 03:14:38;;;;;;;0.70;0.70;;;3.10;99.90;;;;;;2073748;28;20184;-61
2021/12/01 03:15:39;;;;;;;1.53;0.60;;;3.10;99.60;;;;;;2073615;28;20187;-62
2021/12/01 03:16:41;;;;;;;0.65;0.60;;;3.20;99.60;;;;;;2073601;28;20199;-62
2021/12/01 03:17:42;;;;;;;2.50;0.40;;;3.10;99.60;;;;;;2073581;28;20692;-61
2021/12/01 03:18:46;;;;;;;0.60;0.50;;;3.10;99.40;;;;;;2073863;28;20189;-62
2021/12/01 03:19:47;;;;;;;0.55;0.52;;;3.20;99.30;;;;;;2073363;28;20424;-62
2021/12/01 03:20:48;;;;;;;0.60;0.60;;;3.20;99.10;;;;;;2073495;28;20214;-62
2021/12/01 03:21:49;;;;;;;0.50;0.50;;;3.20;99.00;;;;;;2073538;28;20220;-62
2021/12/01 03:22:49;;;;;;;0.40;0.40;;;3.20;99.00;;;;;;2073670;28;20213;-62
2021/12/01 03:23:50;;;;;;;0.60;0.50;;;3.20;98.90;;;;;;2073655;28;20447;-62
2021/12/01 03:24:52;;;;;;;1.07;0.50;;;3.20;99.20;;;;;;2073874;28;20193;-61
2021/12/01 03:25:53;;;;;;;0.85;0.60;;;3.20;99.20;;;;;;2073660;28;20208;-62
2021/12/01 03:26:54;;;;;;;0.73;0.50;;;3.20;99.10;;;;;;2073582;28;20256;-62
2021/12/01 03:27:55;;;;;;;1.97;0.60;;;3.20;99.00;;;;;;2073593;28;20650;-62
2021/12/01 03:28:56;;;;;;;0.40;0.40;;;3.20;99.20;;;;;;2073558;28;20561;-62
2021/12/01 03:29:57;;;;;;;0.75;0.40;;;3.30;98.90;;;;;;2073222;28;20184;-62
2021/12/01 03:30:57;;;;;;;0.70;0.60;;;3.30;98.90;;;;;;2073706;28;20211;-62
2021/12/01 03:31:58;;;;;;;1.80;0.50;;;3.30;98.90;;;;;;2073587;28;20185;-61
2021/12/01 03:33:00;;;;;;;1.37;0.37;;;3.20;98.90;;;;;;2073764;28;20184;-62
2021/12/01 03:34:03;;;;;;;0.47;0.47;;;3.20;99.00;;;;;;2073677;28;20189;-62
2021/12/01 03:35:08;;;;;;;0.57;0.40;;;3.30;98.90;;;;;;2073772;28;20197;-61
2021/12/01 03:36:09;;;;;;;0.25;0.25;;;3.20;98.90;;;;;;2072431;28;20177;-60
2021/12/01 03:37:10;;;;;;;0.27;0.27;;;3.20;98.80;;;;;;2073144;28;20302;-61
2021/12/01 03:38:12;;;;;;;0.50;0.50;;;3.30;98.70;;;;;;2073538;28;20196;-61
2021/12/01 03:39:13;;;;;;;0.50;0.40;;;3.30;98.40;;;;;;2073577;28;20193;-61
2021/12/01 03:40:15;;;;;;;0.50;0.50;;;3.40;98.00;;;;;;2073484;28;20193;-61
2021/12/01 03:41:16;;;;;;;0.93;0.40;;;3.40;97.80;;;;;;2073488;28;20708;-61
2021/12/01 03:42:16;;;;;;;1.47;0.53;;;3.40;98.30;;;;;;2073452;28;20180;-62
2021/12/01 03:43:17;;;;;;;1.17;0.40;;;3.40;97.80;;;;;;2073626;28;20173;-61
2021/12/01 03:44:18;;;;;;;0.30;0.30;;;3.40;98.00;;;;;;2073531;28;20673;-61
2021/12/01 03:45:19;;;;;;;0.43;0.40;;;3.40;98.50;;;;;;2073456;28;20244;-63
2021/12/01 03:46:19;;;;;;;1.87;0.70;;;3.40;98.10;;;;;;2073573;28;20260;-60
2021/12/01 03:47:20;;;;;;;0.40;0.40;;;3.40;97.90;;;;;;2073562;28;20173;-62
2021/12/01 03:48:22;;;;;;;2.23;0.90;;;3.40;97.90;;;;;;2073461;28;20806;-62
2021/12/01 03:49:22;;;;;;;0.40;0.40;;;3.40;97.80;;;;;;2073230;28;20565;-61
2021/12/01 03:50:23;;;;;;;0.30;0.30;;;3.40;97.70;;;;;;2073064;28;20200;-61
2021/12/01 03:51:24;;;;;;;0.40;0.40;;;3.40;97.90;;;;;;2073409;28;20216;-61
2021/12/01 03:52:25;;;;;;;0.40;0.40;;;3.40;97.50;;;;;;2073433;28;20185;-62
2021/12/01 03:53:27;;;;;;;1.03;0.37;;;3.40;97.80;;;;;;2073260;28;20189;-61
2021/12/01 03:54:28;;;;;;;0.30;0.30;;;3.40;97.70;;;;;;2073264;28;20185;-62
2021/12/01 03:55:29;;;;;;;0.30;0.30;;;3.40;97.50;;;;;;2073277;28;20243;-61
2021/12/01 03:56:30;;;;;;;0.20;0.20;;;3.40;97.50;;;;;;2073390;28;20255;-61
2021/12/01 03:57:31;;;;;;;0.57;0.30;;;3.40;97.40;;;;;;2073344;28;20188;-61
2021/12/01 03:58:31;;;;;;;0.30;0.30;;;3.40;97.10;;;;;;2073314;28;20480;-62
2021/12/01 03:59:32;;;;;;;0.37;0.30;;;3.40;97.00;;;;;;2073160;28;20196;-61
2021/12/01 04:00:33;;;;;;;0.20;0.20;;;3.50;96.80;;;;;;2073225;28;20222;-62
2021/12/01 04:01:35;;;;;;;0.40;0.30;;;3.50;96.80;;;;;;2073283;28;20200;-61
2021/12/01 04:02:36;;;;;;;0.30;0.30;;;3.40;97.10;;;;;;2073338;28;20302;-62
2021/12/01 04:03:36;;;;;;;1.27;0.30;;;3.40;97.40;;;;;;2072509;28;20185;-61
2021/12/01 04:04:37;;;;;;;0.40;0.30;;;3.40;97.20;;;;;;2072638;28;20187;-61
2021/12/01 04:05:38;;;;;;;0.40;0.40;;;3.40;97.10;;;;;;2073201;28;20234;-60
2021/12/01 04:06:39;;;;;;;1.10;0.30;;;3.40;97.10;;;;;;2072613;28;20232;-61
2021/12/01 04:07:40;;;;;;;0.40;0.20;;;3.50;96.90;;;;;;2072679;28;20208;-61
2021/12/01 04:08:42;;;;;;;0.30;0.30;;;3.50;97.30;;;;;;2073302;28;20216;-62
2021/12/01 04:09:44;;;;;;;0.30;0.30;;;3.50;97.40;;;;;;2072802;28;20201;-61
2021/12/01 04:10:45;;;;;;;0.30;0.25;;;3.50;97.00;;;;;;2073239;28;20566;-60
2021/12/01 04:11:45;;;;;;;0.30;0.30;;;3.40;97.10;;;;;;2073208;28;20193;-61
2021/12/01 04:12:46;;;;;;;0.30;0.30;;;3.50;96.80;;;;;;2073258;28;20185;-61
2021/12/01 04:13:48;;;;;;;0.60;0.40;;;3.60;96.60;;;;;;2073234;28;20223;-61
2021/12/01 04:14:49;;;;;;;0.60;0.38;;;3.50;96.80;;;;;;2073134;28;20184;-61
2021/12/01 04:15:50;;;;;;;0.30;0.30;;;3.50;97.10;;;;;;2072799;28;20223;-61
2021/12/01 04:16:50;;;;;;;0.33;0.30;;;3.40;97.20;;;;;;2072750;28;20208;-61
2021/12/01 04:17:51;;;;;;;0.30;0.30;;;3.40;97.10;;;;;;2073320;28;20664;-61
2021/12/01 04:18:52;;;;;;;0.40;0.40;;;3.40;97.10;;;;;;2073237;28;20177;-62
2021/12/01 04:19:52;;;;;;;0.40;0.40;;;3.40;97.20;;;;;;2072851;28;20271;-61
2021/12/01 04:20:53;;;;;;;0.30;0.30;;;3.40;97.40;;;;;;2073178;28;20607;-61
2021/12/01 04:21:54;;;;;;;0.30;0.30;;;3.40;97.60;;;;;;2073194;28;20177;-61
2021/12/01 04:22:55;;;;;;;0.47;0.47;;;3.40;97.70;;;;;;2073038;28;20206;-61
2021/12/01 04:23:56;;;;;;;0.52;0.52;;;3.40;97.70;;;;;;2073268;28;20200;-61
2021/12/01 04:24:57;;;;;;;0.63;0.35;;;3.40;97.80;;;;;;2073098;28;20189;-61
2021/12/01 04:25:58;;;;;;;0.40;0.40;;;3.40;97.40;;;;;;2064328;28;20554;-61
2021/12/01 04:26:59;;;;;;;0.40;0.40;;;3.40;97.70;;;;;;2064467;28;20257;-60
2021/12/01 04:27:59;;;;;;;0.57;0.50;;;3.40;97.50;;;;;;2073185;28;20717;-61
2021/12/01 04:29:03;;;;;;;0.32;0.32;;;3.40;97.50;;;;;;2073175;28;20196;-61
2021/12/01 04:30:09;;;;;;;0.70;0.70;;;3.40;97.60;;;;;;2072812;28;20186;-61
2021/12/01 04:31:09;;;;;;;0.30;0.30;;;3.40;97.50;;;;;;2073096;28;20258;-61
2021/12/01 04:32:10;;;;;;;0.40;0.40;;;3.30;97.60;;;;;;2073045;28;20177;-61
2021/12/01 04:33:11;;;;;;;0.30;0.30;;;3.40;97.60;;;;;;2073058;28;20176;-60
2021/12/01 04:34:12;;;;;;;0.40;0.40;;;3.40;97.40;;;;;;2073230;28;20327;-61
2021/12/01 04:35:15;;;;;;;0.67;0.40;;;3.40;97.30;;;;;;2072470;28;20192;-61
2021/12/01 04:36:17;;;;;;;0.30;0.30;;;3.40;97.40;;;;;;2072494;28;20180;-61
2021/12/01 04:37:18;;;;;;;0.20;0.20;;;3.40;97.30;;;;;;2073026;28;20536;-61
2021/12/01 04:38:18;;;;;;;0.30;0.30;;;3.30;97.30;;;;;;2073092;28;20188;-61
2021/12/01 04:39:20;;;;;;;0.30;0.30;;;3.30;97.40;;;;;;2073079;28;20184;-61
2021/12/01 04:40:21;;;;;;;0.28;0.28;;;3.40;97.30;;;;;;2072811;28;20205;-60
2021/12/01 04:41:23;;;;;;;0.57;0.28;;;3.40;97.30;;;;;;2073003;28;20181;-61
2021/12/01 04:42:23;;;;;;;0.40;0.40;;;3.40;97.30;;;;;;2073144;28;20228;-61
2021/12/01 04:43:24;;;;;;;0.33;0.33;;;3.40;97.40;;;;;;2073016;28;20189;-61
2021/12/01 04:44:26;;;;;;;0.33;0.33;;;3.40;97.50;;;;;;2073213;28;20208;-61
2021/12/01 04:45:29;;;;;;;0.40;0.40;;;3.40;97.60;;;;;;2073043;28;20176;-61
2021/12/01 04:46:31;;;;;;;0.40;0.40;;;3.30;97.90;;;;;;2073070;28;20186;-60
2021/12/01 04:47:37;;;;;;;0.90;0.40;;;3.30;97.90;;;;;;2073038;28;20181;-59
2021/12/01 04:48:38;;;;;;;0.47;0.47;;;3.30;97.80;;;;;;2073085;28;20639;-60
2021/12/01 04:49:39;;;;;;;0.30;0.30;;;3.30;97.90;;;;;;2072885;28;20251;-61
2021/12/01 04:50:40;;;;;;;0.47;0.47;;;3.30;97.80;;;;;;2073107;28;20197;-61
2021/12/01 04:51:44;;;;;;;0.37;0.30;;;3.40;98.20;;;;;;2073184;28;20191;-61
2021/12/01 04:52:45;;;;;;;0.70;0.22;;;3.30;97.70;;;;;;2073053;28;20184;-61
2021/12/01 04:53:46;;;;;;;0.40;0.40;;;3.40;97.70;;;;;;2073021;28;20185;-60
2021/12/01 04:54:47;;;;;;;0.43;0.33;;;3.40;97.50;;;;;;2073067;28;20188;-61
2021/12/01 04:55:48;;;;;;;0.75;0.40;;;3.40;97.10;;;;;;2072974;28;20220;-61
2021/12/01 04:56:50;;;;;;;1.85;0.65;;;3.40;97.30;;;;;;2072411;28;20677;-63
2021/12/01 04:57:51;;;;;;;0.40;0.40;;;3.40;97.30;;;;;;2072342;28;20185;-61
2021/12/01 04:58:52;;;;;;;0.43;0.43;;;3.50;96.60;;;;;;2073041;28;20243;-61
2021/12/01 04:59:53;;;;;;;0.50;0.40;;;3.50;96.50;;;;;;2072173;28;20216;-63
2021/12/01 05:00:57;;;;;;;0.70;0.50;;;3.50;96.70;;;;;;2072447;28;20675;-62
2021/12/01 05:01:57;;;;;;;0.47;0.47;;;3.40;96.90;;;;;;2072961;28;20191;-63
2021/12/01 05:02:58;;;;;;;0.33;0.33;;;3.40;96.90;;;;;;2072862;28;20208;-63
2021/12/01 05:03:59;;;;;;;0.43;0.43;;;3.40;96.30;;;;;;2072407;28;20199;-63
2021/12/01 05:05:00;;;;;;;0.63;0.43;;;3.50;96.00;;;;;;2073138;28;20181;-62
2021/12/01 05:06:00;;;;;;;0.67;0.40;;;3.40;96.00;;;;;;2072944;28;20184;-63
2021/12/01 05:07:01;;;;;;;0.93;0.50;;;3.40;96.30;;;;;;2073025;28;20181;-63
2021/12/01 05:08:03;;;;;;;0.40;0.40;;;3.40;96.30;;;;;;2072876;28;20174;-61
2021/12/01 05:09:05;;;;;;;0.50;0.50;;;3.40;96.30;;;;;;2072852;28;20204;-63
2021/12/01 05:10:07;;;;;;;0.40;0.40;;;3.40;96.10;;;;;;2072665;28;20173;-61
2021/12/01 05:11:08;;;;;;;0.50;0.50;;;3.40;96.00;;;;;;2073015;28;20269;-63
2021/12/01 05:12:10;;;;;;;2.60;0.63;;;3.40;96.00;;;;;;2072930;28;20762;-63
2021/12/01 05:13:10;;;;;;;1.15;0.60;;;3.40;96.10;;;;;;2072702;28;20774;-62
2021/12/01 05:14:13;;;;;;;0.70;0.43;;;3.40;96.00;;;;;;2072325;28;20331;-63
2021/12/01 05:15:14;;;;;;;1.35;0.45;;;3.40;95.80;;;;;;2073120;28;20185;-63
2021/12/01 05:16:15;;;;;;;0.40;0.40;;;3.50;95.90;;;;;;2072886;28;20260;-63
2021/12/01 05:17:17;;;;;;;0.50;0.50;;;3.50;95.80;;;;;;2072918;28;20196;-63
2021/12/01 05:18:18;;;;;;;0.50;0.40;;;3.40;95.90;;;;;;2072975;28;20177;-62
2021/12/01 05:19:19;;;;;;;0.40;0.40;;;3.50;96.20;;;;;;2072801;28;20650;-63
2021/12/01 05:20:20;;;;;;;3.23;0.70;;;3.40;96.00;;;;;;2072652;28;20192;-62
2021/12/01 05:21:20;;;;;;;1.07;0.70;;;3.40;96.20;;;;;;2073099;28;20658;-61
2021/12/01 05:22:22;;;;;;;2.83;0.50;;;3.40;96.30;;;;;;2072913;28;20208;-63
2021/12/01 05:23:22;;;;;;;0.70;0.40;;;3.40;96.10;;;;;;2073084;28;20177;-63
2021/12/01 05:24:23;;;;;;;1.80;0.40;;;3.50;95.90;;;;;;2072869;28;20672;-61
2021/12/01 05:25:24;;;;;;;0.87;0.40;;;3.40;96.10;;;;;;2072223;28;20187;-62
2021/12/01 05:26:25;;;;;;;1.57;1.00;;;3.40;96.00;;;;;;2072361;28;20197;-63
2021/12/01 05:27:25;;;;;;;0.80;0.63;;;3.40;96.00;;;;;;2073131;28;20181;-63
2021/12/01 05:28:26;;;;;;;0.40;0.40;;;3.40;96.10;;;;;;2074415;28;20177;-62
2021/12/01 05:29:27;;;;;;;0.43;0.43;;;3.40;95.90;;;;;;2074349;28;20185;-62
2021/12/01 05:30:28;;;;;;;1.70;0.47;;;3.50;95.80;;;;;;2074285;28;20348;-63
2021/12/01 05:31:29;;;;;;;0.60;0.57;;;3.50;95.60;;;;;;2074497;28;20938;-61
2021/12/01 05:32:31;;;;;;;0.57;0.40;;;3.50;95.50;;;;;;2074566;28;20751;-62
2021/12/01 05:33:32;;;;;;;0.47;0.47;;;3.50;95.50;;;;;;2074400;28;20182;-62